createdAt,value
2018-10-12T00:00:22.245Z,36.43
2018-10-12T00:02:49.863Z,37.13
2018-10-12T00:05:17.449Z,38.37
2018-10-12T00:07:45.100Z,37.73
2018-10-12T00:10:12.747Z,38.30
2018-10-12T00:12:40.765Z,38.47
2018-10-12T00:15:08.671Z,39.33
2018-10-12T00:17:36.274Z,36.30
2018-10-12T00:20:03.925Z,36.77
2018-10-12T00:22:31.528Z,36.40
2018-10-12T00:24:59.144Z,38.90
2018-10-12T00:27:26.855Z,38.80
2018-10-12T00:29:54.516Z,41.93
2018-10-12T00:32:22.116Z,41.73
2018-10-12T00:34:49.741Z,39.83
2018-10-12T00:37:17.342Z,37.47
2018-10-12T00:39:44.946Z,38.57
2018-10-12T00:42:12.579Z,39.57
2018-10-12T00:44:40.217Z,39.03
2018-10-12T00:47:07.865Z,38.27
2018-10-12T00:49:35.484Z,36.73
2018-10-12T00:52:03.099Z,38.30
2018-10-12T00:54:30.687Z,37.80
2018-10-12T00:56:58.379Z,38.90
2018-10-12T00:59:25.995Z,35.03
2018-10-12T01:01:53.608Z,33.30
2018-10-12T01:04:21.245Z,37.00
2018-10-12T01:06:48.899Z,39.83
2018-10-12T01:09:16.540Z,39.23
2018-10-12T01:11:44.133Z,39.43
2018-10-12T01:14:11.757Z,38.23
2018-10-12T01:16:39.459Z,38.00
2018-10-12T01:19:07.162Z,39.80
2018-10-12T01:21:34.835Z,42.20
2018-10-12T01:24:02.515Z,38.57
2018-10-12T01:26:30.154Z,40.00
2018-10-12T01:28:58.372Z,31.33
2018-10-12T01:31:27.081Z,30.33
2018-10-12T01:33:54.941Z,28.03
2018-10-12T01:36:22.847Z,26.03
2018-10-12T01:38:50.523Z,28.53
2018-10-12T01:41:18.160Z,30.53
2018-10-12T01:43:45.889Z,32.83
2018-10-12T01:46:13.529Z,32.23
2018-10-12T01:48:41.169Z,32.60
2018-10-12T01:51:08.768Z,30.07
2018-10-12T01:53:36.546Z,34.00
2018-10-12T01:56:05.361Z,35.80
2018-10-12T01:58:33.565Z,35.83
2018-10-12T02:01:01.477Z,37.30
2018-10-12T02:03:29.254Z,36.60
2018-10-12T02:05:56.895Z,34.07
2018-10-12T02:08:24.579Z,35.33
2018-10-12T02:10:52.204Z,35.40
2018-10-12T02:13:19.914Z,37.60
2018-10-12T02:15:47.527Z,38.20
2018-10-12T02:18:15.212Z,40.60
2018-10-12T02:20:42.821Z,37.30
2018-10-12T02:23:10.453Z,36.93
2018-10-12T02:25:38.053Z,40.27
2018-10-12T02:28:05.690Z,37.77
2018-10-12T02:30:33.292Z,37.73
2018-10-12T02:33:00.900Z,37.10
2018-10-12T02:35:28.504Z,36.80
2018-10-12T02:37:56.173Z,39.73
2018-10-12T02:40:23.775Z,38.93
2018-10-12T02:42:51.398Z,40.50
2018-10-12T02:45:19.087Z,42.70
2018-10-12T02:47:46.660Z,42.03
2018-10-12T02:50:14.275Z,42.33
2018-10-12T02:52:41.878Z,39.20
2018-10-12T02:55:09.492Z,36.80
2018-10-12T02:57:37.132Z,34.83
2018-10-12T03:00:05.005Z,35.00
2018-10-12T03:02:32.640Z,32.27
2018-10-12T03:05:00.276Z,35.27
2018-10-12T03:07:28.066Z,37.93
2018-10-12T03:09:55.635Z,40.23
2018-10-12T03:12:23.276Z,39.23
2018-10-12T03:14:50.914Z,38.00
2018-10-12T03:17:18.498Z,36.00
2018-10-12T03:19:46.101Z,33.00
2018-10-12T03:22:13.978Z,38.83
2018-10-12T03:24:41.842Z,37.87
2018-10-12T03:27:09.733Z,39.37
2018-10-12T03:29:37.336Z,37.90
2018-10-12T03:32:05.071Z,38.00
2018-10-12T03:34:32.889Z,38.43
2018-10-12T03:37:00.594Z,37.00
2018-10-12T03:39:28.211Z,39.17
2018-10-12T03:41:55.921Z,39.60
2018-10-12T03:44:23.567Z,40.40
2018-10-12T03:46:51.260Z,39.63
2018-10-12T03:49:18.902Z,44.37
2018-10-12T03:51:46.571Z,37.93
2018-10-12T03:54:14.168Z,34.77
2018-10-12T03:56:41.827Z,33.40
2018-10-12T03:59:09.603Z,37.10
2018-10-12T04:01:37.243Z,37.40
2018-10-12T04:04:04.873Z,42.70
2018-10-12T04:06:32.669Z,36.60
2018-10-12T04:09:00.342Z,40.87
2018-10-12T04:11:28.082Z,39.60
2018-10-12T04:13:55.727Z,40.73
2018-10-12T04:16:23.347Z,41.73
2018-10-12T04:18:50.964Z,42.07
2018-10-12T04:21:19.748Z,42.50
2018-10-12T04:23:47.354Z,40.40
2018-10-12T04:26:15.049Z,40.30
2018-10-12T04:28:42.705Z,35.27
2018-10-12T04:31:10.323Z,38.57
2018-10-12T04:33:37.970Z,35.57
2018-10-12T04:36:05.575Z,38.97
2018-10-12T04:38:38.816Z,40.87
2018-10-12T04:41:22.639Z,42.90
2018-10-12T04:43:52.702Z,40.50
2018-10-12T04:46:22.413Z,41.70
2018-10-12T04:48:50.620Z,42.27
2018-10-12T04:51:20.679Z,40.77
2018-10-12T04:53:48.488Z,39.07
2018-10-12T04:56:18.041Z,40.13
2018-10-12T04:58:45.692Z,41.93
2018-10-12T05:01:13.506Z,42.87
2018-10-12T05:03:41.057Z,45.73
2018-10-12T05:06:08.669Z,50.30
2018-10-12T05:08:36.735Z,45.30
2018-10-12T05:11:04.346Z,42.07
2018-10-12T05:13:33.002Z,43.10
2018-10-12T05:16:00.860Z,42.10
2018-10-12T05:18:28.509Z,47.10
2018-10-12T05:20:56.175Z,39.30
2018-10-12T05:23:23.771Z,38.70
2018-10-12T05:25:51.408Z,38.93
2018-10-12T05:28:19.048Z,40.27
2018-10-12T05:30:46.658Z,41.53
2018-10-12T05:33:14.260Z,41.87
2018-10-12T05:35:41.894Z,41.07
2018-10-12T05:38:09.574Z,41.27
2018-10-12T05:40:37.225Z,45.20
2018-10-12T05:43:04.875Z,42.00
2018-10-12T05:45:32.515Z,42.87
2018-10-12T05:48:05.527Z,44.07
2018-10-12T05:50:33.241Z,38.97
2018-10-12T05:53:00.922Z,45.23
2018-10-12T05:55:28.542Z,40.57
2018-10-12T05:57:56.217Z,43.23
2018-10-12T06:00:23.933Z,42.57
2018-10-12T06:02:51.564Z,43.47
2018-10-12T06:05:19.256Z,40.93
2018-10-12T06:07:47.443Z,41.50
2018-10-12T06:10:15.088Z,41.57
2018-10-12T06:12:42.755Z,42.57
2018-10-12T06:15:10.353Z,40.53
2018-10-12T06:17:37.976Z,42.17
2018-10-12T06:20:05.651Z,40.43
2018-10-12T06:22:33.293Z,36.53
2018-10-12T06:25:00.992Z,37.93
2018-10-12T06:27:28.552Z,38.77
2018-10-12T06:29:56.122Z,40.07
2018-10-12T06:32:23.724Z,42.83
2018-10-12T06:34:51.309Z,53.00
2018-10-12T06:37:18.909Z,48.00
2018-10-12T06:39:46.515Z,49.53
2018-10-12T06:42:14.125Z,44.10
2018-10-12T06:44:41.716Z,45.07
2018-10-12T06:47:09.371Z,45.57
2018-10-12T06:49:37.024Z,47.87
2018-10-12T06:52:04.650Z,47.90
2018-10-12T06:54:32.255Z,50.10
2018-10-12T06:56:59.886Z,51.00
2018-10-12T06:59:27.461Z,49.40
2018-10-12T07:01:55.044Z,49.90
2018-10-12T07:04:22.652Z,49.00
2018-10-12T07:06:50.325Z,54.87
2018-10-12T07:09:17.949Z,50.60
2018-10-12T07:11:45.575Z,53.60
2018-10-12T07:14:13.195Z,59.07
2018-10-12T07:16:40.806Z,53.43
2018-10-12T07:19:17.055Z,53.60
2018-10-12T07:21:45.114Z,47.47
2018-10-12T07:24:12.713Z,53.63
2018-10-12T07:26:40.345Z,50.77
2018-10-12T07:29:07.983Z,52.90
2018-10-12T07:31:35.710Z,50.70
2018-10-12T07:34:03.949Z,51.87
2018-10-12T07:36:31.607Z,48.33
2018-10-12T07:38:59.296Z,52.23
2018-10-12T07:41:26.905Z,49.23
2018-10-12T07:43:54.526Z,47.87
2018-10-12T07:46:22.140Z,46.97
2018-10-12T07:48:50.137Z,49.97
2018-10-12T07:51:17.762Z,47.83
2018-10-12T07:53:45.361Z,45.27
2018-10-12T07:56:12.993Z,55.23
2018-10-12T07:58:40.661Z,48.70
2018-10-12T08:01:08.299Z,50.50
2018-10-12T08:03:35.974Z,49.77
2018-10-12T08:06:03.657Z,56.80
2018-10-12T08:08:31.271Z,50.00
2018-10-12T08:10:58.900Z,49.60
2018-10-12T08:13:26.621Z,54.23
2018-10-12T08:15:56.105Z,56.77
2018-10-12T08:18:23.918Z,56.73
2018-10-12T08:20:51.617Z,58.47
2018-10-12T08:23:19.216Z,55.63
2018-10-12T08:25:46.879Z,55.73
2018-10-12T08:28:14.492Z,60.80
2018-10-12T08:30:42.102Z,51.40
2018-10-12T08:33:09.691Z,52.30
2018-10-12T08:35:37.269Z,52.27
2018-10-12T08:38:04.935Z,51.63
2018-10-12T08:40:32.545Z,51.50
2018-10-12T08:43:00.148Z,51.67
2018-10-12T08:45:27.733Z,50.80
2018-10-12T08:47:55.323Z,50.03
2018-10-12T08:50:22.924Z,53.27
2018-10-12T08:52:50.490Z,53.00
2018-10-12T08:55:18.136Z,48.50
2018-10-12T08:57:45.995Z,46.97
2018-10-12T09:00:14.131Z,45.70
2018-10-12T09:02:41.748Z,46.53
2018-10-12T09:05:09.353Z,47.03
2018-10-12T09:07:37.029Z,46.63
2018-10-12T09:10:04.906Z,49.17
2018-10-12T09:12:32.501Z,47.07
2018-10-12T09:15:00.148Z,48.00
2018-10-12T09:17:27.807Z,45.40
2018-10-12T09:19:55.413Z,49.53
2018-10-12T09:22:23.385Z,44.97
2018-10-12T09:24:51.253Z,44.60
2018-10-12T09:27:18.953Z,43.90
2018-10-12T09:29:46.517Z,54.50
2018-10-12T09:32:14.106Z,41.67
2018-10-12T09:34:41.685Z,42.07
2018-10-12T09:37:09.353Z,46.67
2018-10-12T09:39:36.943Z,43.93
2018-10-12T09:42:04.620Z,41.47
2018-10-12T09:44:32.231Z,42.47
2018-10-12T09:46:59.840Z,45.00
2018-10-12T09:49:27.685Z,41.60
2018-10-12T09:51:55.350Z,39.63
2018-10-12T09:54:22.960Z,37.37
2018-10-12T09:56:56.060Z,50.50
2018-10-12T09:59:23.764Z,46.83
2018-10-12T10:01:56.715Z,43.77
2018-10-12T10:04:30.386Z,42.03
2018-10-12T10:06:58.407Z,40.33
2018-10-12T10:09:26.075Z,44.37
2018-10-12T10:11:53.653Z,41.13
2018-10-12T10:14:21.262Z,43.20
2018-10-12T10:16:48.846Z,43.83
2018-10-12T10:19:16.847Z,65.07
2018-10-12T10:21:44.438Z,143.33
2018-10-12T10:24:12.136Z,43.87
2018-10-12T10:26:39.787Z,64.80
2018-10-12T10:29:07.409Z,45.40
2018-10-12T10:31:35.010Z,58.97
2018-10-12T10:34:02.601Z,43.03
2018-10-12T10:36:30.231Z,40.90
2018-10-12T10:38:57.873Z,41.70
2018-10-12T10:41:25.479Z,47.53
2018-10-12T10:43:53.085Z,39.63
2018-10-12T10:46:20.855Z,39.17
2018-10-12T10:48:48.435Z,39.87
2018-10-12T10:51:16.426Z,38.90
2018-10-12T10:53:44.069Z,39.57
2018-10-12T10:56:11.650Z,40.20
2018-10-12T10:58:39.264Z,41.27
2018-10-12T11:01:06.922Z,39.43
2018-10-12T11:03:34.548Z,38.03
2018-10-12T11:06:02.151Z,39.70
2018-10-12T11:08:29.778Z,39.03
2018-10-12T11:10:57.390Z,34.70
2018-10-12T11:13:25.009Z,35.17
2018-10-12T11:15:52.624Z,34.13
2018-10-12T11:18:20.208Z,31.50
2018-10-12T11:20:47.855Z,36.30
2018-10-12T11:23:15.480Z,33.80
2018-10-12T11:25:43.077Z,34.50
2018-10-12T11:28:10.704Z,32.53
2018-10-12T11:30:38.310Z,32.13
2018-10-12T11:33:06.099Z,31.50
2018-10-12T11:35:33.728Z,33.10
2018-10-12T11:38:01.350Z,33.47
2018-10-12T11:40:28.928Z,32.07
2018-10-12T11:43:01.940Z,31.90
2018-10-12T11:45:29.657Z,29.10
2018-10-12T11:47:57.237Z,29.17
2018-10-12T11:50:24.824Z,30.73
2018-10-12T11:52:52.421Z,28.90
2018-10-12T11:55:20.034Z,29.73
2018-10-12T11:57:47.640Z,27.17
2018-10-12T12:00:15.261Z,30.60
2018-10-12T12:02:42.854Z,28.07
2018-10-12T12:05:10.451Z,31.03
2018-10-12T12:07:38.024Z,31.07
2018-10-12T12:10:05.717Z,30.13
2018-10-12T12:12:33.313Z,28.67
2018-10-12T12:15:01.163Z,27.83
2018-10-12T12:17:28.764Z,32.23
2018-10-12T12:19:56.354Z,34.03
2018-10-12T12:22:23.938Z,33.40
2018-10-12T12:24:51.526Z,33.27
2018-10-12T12:27:19.113Z,32.30
2018-10-12T12:29:46.693Z,32.70
2018-10-12T12:32:14.272Z,32.87
2018-10-12T12:34:41.937Z,31.93
2018-10-12T12:37:09.523Z,33.83
2018-10-12T12:39:37.365Z,35.97
2018-10-12T12:42:04.973Z,36.03
2018-10-12T12:44:32.613Z,33.83
2018-10-12T12:47:00.221Z,33.23
2018-10-12T12:49:27.965Z,34.03
2018-10-12T12:51:55.507Z,33.43
2018-10-12T12:54:23.218Z,32.13
2018-10-12T12:56:50.825Z,32.63
2018-10-12T12:59:18.430Z,33.83
2018-10-12T13:01:46.062Z,32.90
2018-10-12T13:04:13.740Z,32.10
2018-10-12T13:06:41.378Z,33.67
2018-10-12T13:09:09.864Z,32.50
2018-10-12T13:11:37.897Z,30.90
2018-10-12T13:14:05.488Z,31.30
2018-10-12T13:16:33.130Z,30.37
2018-10-12T13:19:00.791Z,30.17
2018-10-12T13:21:28.849Z,29.00
2018-10-12T13:23:56.440Z,30.13
2018-10-12T13:26:24.164Z,29.80
2018-10-12T13:28:51.671Z,28.03
2018-10-12T13:31:19.277Z,29.47
2018-10-12T13:33:47.145Z,29.87
2018-10-12T13:36:14.726Z,31.97
2018-10-12T13:38:42.290Z,30.30
2018-10-12T13:41:09.896Z,30.70
2018-10-12T13:43:37.503Z,31.33
2018-10-12T13:46:05.166Z,30.67
2018-10-12T13:48:32.827Z,31.17
2018-10-12T13:51:00.477Z,30.87
2018-10-12T13:53:28.088Z,33.07
2018-10-12T13:55:55.690Z,31.27
2018-10-12T13:58:23.248Z,30.03
2018-10-12T14:00:50.860Z,30.20
2018-10-12T14:03:18.457Z,28.77
2018-10-12T14:05:46.156Z,30.57
2018-10-12T14:08:14.073Z,29.50
2018-10-12T14:10:41.686Z,29.20
2018-10-12T14:13:09.348Z,27.60
2018-10-12T14:15:36.957Z,27.77
2018-10-12T14:18:04.689Z,29.03
2018-10-12T14:20:32.272Z,29.70
2018-10-12T14:22:59.952Z,28.17
2018-10-12T14:25:27.585Z,31.40
2018-10-12T14:27:55.164Z,29.53
2018-10-12T14:30:22.765Z,28.50
2018-10-12T14:32:50.389Z,28.40
2018-10-12T14:35:18.071Z,29.30
2018-10-12T14:37:45.701Z,28.83
2018-10-12T14:40:13.308Z,29.20
2018-10-12T14:42:40.902Z,41.87
2018-10-12T14:45:08.566Z,30.00
2018-10-12T14:47:36.468Z,29.07
2018-10-12T14:50:04.121Z,31.17
2018-10-12T14:52:34.819Z,30.97
2018-10-12T14:55:02.410Z,31.77
2018-10-12T14:57:30.034Z,33.13
2018-10-12T14:59:57.729Z,32.23
2018-10-12T15:02:25.388Z,31.70
2018-10-12T15:04:53.018Z,31.80
2018-10-12T15:07:20.627Z,32.73
2018-10-12T15:09:48.251Z,32.93
2018-10-12T15:12:15.846Z,31.97
2018-10-12T15:14:48.958Z,34.13
2018-10-12T15:17:16.617Z,31.73
2018-10-12T15:19:44.205Z,32.37
2018-10-12T15:22:12.441Z,32.57
2018-10-12T15:24:40.051Z,35.07
2018-10-12T15:27:07.656Z,35.33
2018-10-12T15:29:35.732Z,36.00
2018-10-12T15:32:03.370Z,32.00
2018-10-12T15:34:31.005Z,33.97
2018-10-12T15:36:58.653Z,33.10
2018-10-12T15:39:26.279Z,33.00
2018-10-12T15:41:53.917Z,34.90
2018-10-12T15:44:21.550Z,36.57
2018-10-12T15:46:49.229Z,33.50
2018-10-12T15:49:16.884Z,35.13
2018-10-12T15:51:44.501Z,35.83
2018-10-12T15:54:12.198Z,33.53
2018-10-12T15:56:39.918Z,34.80
2018-10-12T15:59:07.526Z,35.80
2018-10-12T16:01:35.130Z,35.00
2018-10-12T16:04:02.805Z,36.63
2018-10-12T16:06:30.611Z,36.33
2018-10-12T16:08:58.336Z,36.43
2018-10-12T16:11:26.240Z,34.77
2018-10-12T16:13:53.982Z,34.40
2018-10-12T16:16:21.717Z,34.37
2018-10-12T16:18:49.444Z,35.57
2018-10-12T16:21:17.118Z,38.03
2018-10-12T16:23:47.153Z,39.07
2018-10-12T16:26:16.022Z,35.93
2018-10-12T16:28:43.687Z,36.27
2018-10-12T16:31:11.366Z,43.10
2018-10-12T16:33:39.104Z,39.80
2018-10-12T16:36:06.822Z,36.70
2018-10-12T16:38:34.576Z,36.40
2018-10-12T16:41:02.226Z,36.90
2018-10-12T16:43:29.954Z,38.23
2018-10-12T16:45:57.573Z,40.57
2018-10-12T16:48:25.209Z,72.10
2018-10-12T16:50:52.977Z,67.90
2018-10-12T16:53:20.683Z,74.70
2018-10-12T16:55:48.375Z,68.07
2018-10-12T16:58:16.430Z,68.70
2018-10-12T17:00:44.315Z,60.50
2018-10-12T17:03:12.119Z,60.40
2018-10-12T17:05:39.882Z,53.27
2018-10-12T17:08:07.548Z,48.03
2018-10-12T17:10:35.781Z,47.10
2018-10-12T17:13:03.393Z,43.57
2018-10-12T17:15:31.005Z,43.20
2018-10-12T17:17:59.635Z,42.03
2018-10-12T17:20:27.366Z,40.47
2018-10-12T17:22:55.681Z,42.63
2018-10-12T17:25:23.460Z,40.67
2018-10-12T17:27:51.156Z,40.47
2018-10-12T17:30:19.744Z,43.43
2018-10-12T17:32:47.484Z,41.70
2018-10-12T17:35:15.376Z,40.40
2018-10-12T17:37:43.029Z,41.80
2018-10-12T17:40:11.198Z,40.47
2018-10-12T17:42:38.838Z,41.87
2018-10-12T17:45:07.024Z,40.67
2018-10-12T17:47:34.631Z,41.93
2018-10-12T17:50:02.324Z,41.80
2018-10-12T17:52:29.965Z,41.97
2018-10-12T17:54:57.665Z,41.63
2018-10-12T17:57:27.200Z,42.00
2018-10-12T17:59:55.100Z,41.80
2018-10-12T18:02:22.747Z,38.67
2018-10-12T18:04:50.359Z,43.07
2018-10-12T18:07:17.994Z,43.20
2018-10-12T18:09:45.925Z,42.03
2018-10-12T18:12:13.564Z,39.40
2018-10-12T18:14:41.312Z,41.63
2018-10-12T18:17:08.995Z,41.90
2018-10-12T18:19:36.655Z,42.93
2018-10-12T18:22:04.298Z,43.10
2018-10-12T18:24:31.981Z,42.13
2018-10-12T18:27:00.002Z,42.93
2018-10-12T18:29:27.712Z,43.87
2018-10-12T18:31:55.303Z,44.70
2018-10-12T18:34:23.116Z,45.47
2018-10-12T18:36:50.806Z,44.30
2018-10-12T18:39:18.433Z,41.70
2018-10-12T18:41:46.084Z,42.50
2018-10-12T18:44:13.742Z,44.47
2018-10-12T18:46:41.346Z,44.63
2018-10-12T18:49:08.991Z,44.13
2018-10-12T18:51:36.617Z,45.67
2018-10-12T18:54:04.273Z,42.73
2018-10-12T18:56:31.901Z,43.87
2018-10-12T18:58:59.487Z,44.63
2018-10-12T19:01:27.088Z,46.17
2018-10-12T19:03:54.748Z,47.30
2018-10-12T19:06:22.408Z,46.63
2018-10-12T19:08:50.021Z,47.23
2018-10-12T19:11:17.651Z,44.87
2018-10-12T19:13:45.531Z,44.60
2018-10-12T19:16:13.110Z,41.93
2018-10-12T19:18:40.753Z,46.67
2018-10-12T19:21:08.408Z,44.30
2018-10-12T19:23:37.450Z,45.97
2018-10-12T19:26:06.587Z,48.20
2018-10-12T19:28:34.729Z,46.30
2018-10-12T19:31:02.976Z,46.77
2018-10-12T19:33:30.686Z,46.47
2018-10-12T19:35:58.347Z,45.53
2018-10-12T19:38:26.161Z,46.80
2018-10-12T19:40:53.870Z,46.83
2018-10-12T19:43:21.626Z,48.43
2018-10-12T19:45:49.251Z,47.50
2018-10-12T19:48:16.972Z,46.33
2018-10-12T19:50:44.679Z,48.97
2018-10-12T19:53:12.373Z,45.80
2018-10-12T19:55:40.179Z,48.53
2018-10-12T19:58:07.864Z,46.17
2018-10-12T20:00:35.517Z,46.93
2018-10-12T20:03:03.229Z,48.50
2018-10-12T20:05:30.901Z,46.10
2018-10-12T20:07:58.528Z,46.73
2018-10-12T20:10:26.248Z,49.80
2018-10-12T20:12:54.160Z,46.80
2018-10-12T20:15:21.812Z,47.83
2018-10-12T20:17:49.596Z,47.67
2018-10-12T20:20:18.670Z,49.63
2018-10-12T20:22:46.331Z,47.30
2018-10-12T20:25:13.983Z,51.30
2018-10-12T20:27:41.683Z,47.90
2018-10-12T20:30:09.668Z,47.30
2018-10-12T20:32:37.314Z,49.17
2018-10-12T20:35:05.045Z,48.00
2018-10-12T20:37:32.834Z,49.73
2018-10-12T20:40:00.574Z,53.93
2018-10-12T20:42:28.257Z,49.87
2018-10-12T20:44:55.919Z,52.83
2018-10-12T20:47:23.572Z,51.33
2018-10-12T20:49:51.227Z,50.37
2018-10-12T20:52:18.933Z,48.63
2018-10-12T20:54:46.607Z,50.40
2018-10-12T20:57:14.327Z,47.73
2018-10-12T20:59:41.978Z,45.23
2018-10-12T21:02:09.598Z,45.80
2018-10-12T21:04:37.290Z,49.63
2018-10-12T21:07:05.084Z,48.20
2018-10-12T21:09:32.756Z,48.40
2018-10-12T21:12:01.345Z,47.47
2018-10-12T21:14:29.050Z,46.27
2018-10-12T21:16:56.830Z,50.70
2018-10-12T21:19:24.460Z,50.70
2018-10-12T21:21:52.135Z,48.40
2018-10-12T21:24:19.838Z,47.97
2018-10-12T21:26:47.499Z,48.17
2018-10-12T21:29:15.160Z,53.07
2018-10-12T21:31:56.048Z,51.27
2018-10-12T21:34:23.770Z,50.70
2018-10-12T21:36:51.430Z,48.20
2018-10-12T21:39:19.098Z,47.50
2018-10-12T21:41:46.748Z,48.43
2018-10-12T21:44:14.453Z,48.20
2018-10-12T21:46:42.167Z,44.47
2018-10-12T21:49:09.845Z,49.40
2018-10-12T21:51:37.501Z,44.93
2018-10-12T21:54:05.150Z,47.27
2018-10-12T21:56:32.797Z,45.43
2018-10-12T21:59:00.460Z,47.70
2018-10-12T22:01:28.122Z,45.70
2018-10-12T22:03:55.734Z,46.07
2018-10-12T22:06:23.374Z,47.90
2018-10-12T22:08:52.414Z,47.00
2018-10-12T22:11:20.029Z,46.90
2018-10-12T22:13:47.632Z,47.20
2018-10-12T22:16:15.255Z,46.00
2018-10-12T22:18:42.878Z,48.33
2018-10-12T22:21:10.548Z,45.77
2018-10-12T22:23:38.208Z,48.67
2018-10-12T22:26:05.875Z,46.83
2018-10-12T22:28:33.572Z,49.07
2018-10-12T22:31:01.195Z,49.17
2018-10-12T22:33:28.809Z,46.63
2018-10-12T22:35:56.436Z,49.13
2018-10-12T22:38:24.071Z,48.00
2018-10-12T22:40:52.022Z,48.67
2018-10-12T22:43:19.649Z,46.33
2018-10-12T22:45:47.257Z,48.73
2018-10-12T22:48:14.877Z,48.93
2018-10-12T22:50:42.544Z,51.57
2018-10-12T22:53:10.183Z,51.60
2018-10-12T22:55:38.139Z,49.97
2018-10-12T22:58:05.770Z,48.87
2018-10-12T23:00:34.191Z,48.13
2018-10-12T23:03:02.057Z,50.67
2018-10-12T23:05:29.669Z,48.37
2018-10-12T23:07:57.282Z,47.40
2018-10-12T23:10:25.746Z,49.47
2018-10-12T23:12:53.927Z,49.57
2018-10-12T23:15:21.559Z,48.17
2018-10-12T23:17:49.298Z,47.50
2018-10-12T23:20:16.973Z,50.87
2018-10-12T23:22:44.581Z,48.80
2018-10-12T23:25:12.207Z,48.20
2018-10-12T23:27:39.849Z,47.97
2018-10-12T23:30:07.970Z,51.97
2018-10-12T23:32:35.774Z,47.97
2018-10-12T23:35:03.439Z,43.97
2018-10-12T23:37:31.071Z,44.00
2018-10-12T23:39:58.683Z,46.17
2018-10-12T23:42:26.291Z,48.57
2018-10-12T23:44:53.887Z,49.23
2018-10-12T23:47:21.569Z,46.73
2018-10-12T23:49:49.233Z,44.90
2018-10-12T23:52:16.899Z,48.33
2018-10-12T23:54:44.584Z,46.53
2018-10-12T23:57:12.225Z,47.70
2018-10-12T23:59:39.851Z,43.47
